Time;durP1;ratioP1;P1;durP2;ratioP2;P2;SDS_P1;SDS_P2;PMS_P1;PMS_P2;Temp;Humidity;BMP_temperature;BMP_pressure;BME280_temperature;BME280_humidity;BME280_pressure;Samples;Min_cycle;Max_cycle;Signal;HPM_P1;HPM_P2
2021/12/04 00:01:23;;;;;;;;;;;;;;;;;;2086404;28;992;-83
2021/12/04 00:02:37;;;;;;;;;;;;;;;;;;2073512;28;1297;-82
2021/12/04 00:04:00;;;;;;;;;;;;;;;;;;2073381;28;1257;-83
2021/12/04 00:05:13;;;;;;;;;;;;;;;;;;2092717;28;1552;-83
2021/12/04 00:06:41;;;;;;;;;;;;;;;;;;2093594;28;1401;-83
2021/12/04 00:08:04;;;;;;;;;;;;;;;;;;2082608;28;1551;-84
2021/12/04 00:09:49;;;;;;;;;;;;;;;;;;2102930;28;1217;-82
2021/12/04 00:11:02;;;;;;;;;;;;;;;;;;2089563;28;1408;-83
2021/12/04 00:13:43;;;;;;;;;;;;;;;;;;2099636;28;1353;-85
2021/12/04 00:14:55;;;;;;;;;;;;;;;;;;2107223;28;1079;-83
2021/12/04 00:16:26;;;;;;;;;;;;;;;;;;2082680;28;1213;-85
2021/12/04 00:18:11;;;;;;;;;;;;;;;;;;2089679;28;1385;-85
2021/12/04 00:22:17;;;;;;;;;;;;;;;;;;2095040;28;1287;-82
2021/12/04 00:23:23;;;;;;;;;;;;;;;;;;2099741;28;1369;-84
2021/12/04 00:24:39;;;;;;;;;;;;;;;;;;2098735;28;1319;-84
2021/12/04 00:26:01;;;;;;;;;;;;;;;;;;2092350;28;1390;-83
2021/12/04 00:27:17;;;;;;;;;;;;;;;;;;2063675;28;1408;-84
2021/12/04 00:31:27;;;;;;;;;;;;;;;;;;2085020;28;1366;-83
2021/12/04 00:32:40;;;;;;;;;;;;;;;;;;2089396;28;1399;-83
2021/12/04 00:35:34;;;;;;;;;;;;;;;;;;2070170;28;1351;-83
2021/12/04 00:49:58;;;;;;;;;;;;;;;;;;2084702;28;1262;-83
2021/12/04 00:51:00;;;;;;;;;;;;;;;;;;2082884;28;1496;-82
2021/12/04 00:52:04;;;;;;;;;;;;;;;;;;2089200;28;1321;-82
2021/12/04 00:53:04;;;;;;;;;;;;;;;;;;2082178;28;1393;-81
2021/12/04 00:54:09;;;;;;;;;;;;;;;;;;2066139;28;1241;-82
2021/12/04 00:55:11;;;;;;;;;;;;;;;;;;2075140;28;1324;-81
2021/12/04 00:56:13;;;;;;;;;;;;;;;;;;2082466;28;2076;-81
2021/12/04 00:57:15;;;;;;;;;;;;;;;;;;2082685;28;1164;-82
2021/12/04 00:58:19;;;;;;;;;;;;;;;;;;2082321;28;1243;-82
2021/12/04 00:59:21;;;;;;;;;;;;;;;;;;2082791;28;1484;-82
2021/12/04 01:00:21;;;;;;;;;;;;;;;;;;2090457;28;1029;-82
2021/12/04 01:01:23;;;;;;;;;;;;;;;;;;2092166;28;2032;-81
2021/12/04 01:02:26;;;;;;;;;;;;;;;;;;2082319;28;1300;-81
2021/12/04 01:03:28;;;;;;;;;;;;;;;;;;2074641;28;1284;-82
2021/12/04 01:04:33;;;;;;;;;;;;;;;;;;2082412;28;1338;-81
2021/12/04 01:05:35;;;;;;;;;;;;;;;;;;2091129;28;1255;-81
2021/12/04 01:06:36;;;;;;;;;;;;;;;;;;2085748;28;2056;-81
2021/12/04 01:07:38;;;;;;;;;;;;;;;;;;2090799;28;1321;-82
2021/12/04 01:08:39;;;;;;;;;;;;;;;;;;2098864;28;1316;-81
2021/12/04 01:09:42;;;;;;;;;;;;;;;;;;2082285;28;1902;-82
2021/12/04 01:10:47;;;;;;;;;;;;;;;;;;2082549;28;1263;-82
2021/12/04 01:11:52;;;;;;;;;;;;;;;;;;2087853;28;1251;-82
2021/12/04 01:12:56;;;;;;;;;;;;;;;;;;2081943;28;1281;-81
2021/12/04 01:13:58;;;;;;;;;;;;;;;;;;2082777;28;1297;-81
2021/12/04 01:14:59;;;;;;;;;;;;;;;;;;2074207;28;1183;-82
2021/12/04 01:16:01;;;;;;;;;;;;;;;;;;2074059;28;1196;-82
2021/12/04 01:17:02;;;;;;;;;;;;;;;;;;2090441;28;2076;-82
2021/12/04 01:18:04;;;;;;;;;;;;;;;;;;2089993;28;1433;-81
2021/12/04 01:19:05;;;;;;;;;;;;;;;;;;2082450;28;1198;-83
2021/12/04 01:20:08;;;;;;;;;;;;;;;;;;2074096;28;1441;-81
2021/12/04 01:21:08;;;;;;;;;;;;;;;;;;2074187;28;1243;-83
2021/12/04 01:22:11;;;;;;;;;;;;;;;;;;2074009;28;1176;-82
2021/12/04 01:23:12;;;;;;;;;;;;;;;;;;2082131;28;1349;-81
2021/12/04 01:24:16;;;;;;;;;;;;;;;;;;2082157;28;1302;-81
2021/12/04 01:25:16;;;;;;;;;;;;;;;;;;2073894;28;1292;-81
2021/12/04 01:26:22;;;;;;;;;;;;;;;;;;2072275;28;1936;-82
2021/12/04 01:27:23;;;;;;;;;;;;;;;;;;2067205;28;1436;-81
2021/12/04 01:28:25;;;;;;;;;;;;;;;;;;2074111;28;1256;-82
2021/12/04 01:29:27;;;;;;;;;;;;;;;;;;2073902;28;1911;-82
2021/12/04 01:30:28;;;;;;;;;;;;;;;;;;2065678;28;1459;-81
2021/12/04 01:31:29;;;;;;;;;;;;;;;;;;2076537;28;2055;-82
2021/12/04 01:32:30;;;;;;;;;;;;;;;;;;2081845;28;1192;-84
2021/12/04 01:33:32;;;;;;;;;;;;;;;;;;2081832;28;1309;-81
2021/12/04 01:34:34;;;;;;;;;;;;;;;;;;2082144;28;1422;-82
2021/12/04 01:35:38;;;;;;;;;;;;;;;;;;2082278;28;1378;-83
2021/12/04 01:36:39;;;;;;;;;;;;;;;;;;2090199;28;2052;-82
2021/12/04 01:37:41;;;;;;;;;;;;;;;;;;2089464;28;1237;-81
2021/12/04 01:38:41;;;;;;;;;;;;;;;;;;2081934;28;1428;-82
2021/12/04 01:39:43;;;;;;;;;;;;;;;;;;2098605;28;1198;-82
2021/12/04 01:40:45;;;;;;;;;;;;;;;;;;2098731;28;1223;-81
2021/12/04 01:41:48;;;;;;;;;;;;;;;;;;2077067;28;1378;-82
2021/12/04 01:42:49;;;;;;;;;;;;;;;;;;2074463;28;1216;-82
2021/12/04 01:43:50;;;;;;;;;;;;;;;;;;2090668;28;1204;-81
2021/12/04 01:44:51;;;;;;;;;;;;;;;;;;2082153;28;1273;-83
2021/12/04 01:45:56;;;;;;;;;;;;;;;;;;2082415;28;1265;-82
2021/12/04 01:46:57;;;;;;;;;;;;;;;;;;2097216;28;2062;-82
2021/12/04 01:48:00;;;;;;;;;;;;;;;;;;2090153;28;1113;-81
2021/12/04 01:49:00;;;;;;;;;;;;;;;;;;2082891;28;1344;-82
2021/12/04 01:50:04;;;;;;;;;;;;;;;;;;2098055;28;1981;-83
2021/12/04 01:51:05;;;;;;;;;;;;;;;;;;2098797;28;1236;-83
2021/12/04 01:52:07;;;;;;;;;;;;;;;;;;2090432;28;1251;-81
2021/12/04 01:53:08;;;;;;;;;;;;;;;;;;2090107;28;1388;-82
2021/12/04 01:54:10;;;;;;;;;;;;;;;;;;2098553;28;1287;-82
2021/12/04 01:55:13;;;;;;;;;;;;;;;;;;2098390;28;1392;-82
2021/12/04 01:56:15;;;;;;;;;;;;;;;;;;2098760;28;1362;-81
2021/12/04 01:57:20;;;;;;;;;;;;;;;;;;2090678;28;1463;-82
2021/12/04 01:58:23;;;;;;;;;;;;;;;;;;2082349;28;1255;-81
2021/12/04 01:59:23;;;;;;;;;;;;;;;;;;2082170;28;1227;-82
2021/12/04 02:00:25;;;;;;;;;;;;;;;;;;2089963;28;1071;-83
2021/12/04 02:01:26;;;;;;;;;;;;;;;;;;2098736;28;1238;-82
2021/12/04 02:02:28;;;;;;;;;;;;;;;;;;2082149;28;1276;-82
2021/12/04 02:03:29;;;;;;;;;;;;;;;;;;2082083;28;1236;-82
2021/12/04 02:04:31;;;;;;;;;;;;;;;;;;2090098;28;1176;-81
2021/12/04 02:05:32;;;;;;;;;;;;;;;;;;2098878;28;824;-82
2021/12/04 02:06:34;;;;;;;;;;;;;;;;;;2090010;28;1239;-82
2021/12/04 02:07:35;;;;;;;;;;;;;;;;;;2082122;28;1297;-82
2021/12/04 02:08:37;;;;;;;;;;;;;;;;;;2090434;28;1287;-83
2021/12/04 02:09:38;;;;;;;;;;;;;;;;;;2090531;28;1949;-83
2021/12/04 02:10:41;;;;;;;;;;;;;;;;;;2098584;28;791;-82
2021/12/04 02:11:43;;;;;;;;;;;;;;;;;;2098657;28;1330;-82
2021/12/04 02:12:49;;;;;;;;;;;;;;;;;;2089939;28;1189;-82
2021/12/04 02:13:52;;;;;;;;;;;;;;;;;;2082714;28;1404;-82
2021/12/04 02:14:56;;;;;;;;;;;;;;;;;;2081549;28;1277;-82
2021/12/04 02:16:01;;;;;;;;;;;;;;;;;;2098275;28;915;-82
2021/12/04 02:17:03;;;;;;;;;;;;;;;;;;2105704;28;1971;-82
2021/12/04 02:18:08;;;;;;;;;;;;;;;;;;2098109;28;1089;-83
2021/12/04 02:19:09;;;;;;;;;;;;;;;;;;2090359;28;1327;-82
2021/12/04 02:20:15;;;;;;;;;;;;;;;;;;2081486;28;1214;-82
2021/12/04 02:21:16;;;;;;;;;;;;;;;;;;2083275;28;1272;-82
2021/12/04 02:22:18;;;;;;;;;;;;;;;;;;2090205;28;1279;-81
2021/12/04 02:23:20;;;;;;;;;;;;;;;;;;2098607;28;1285;-82
2021/12/04 02:24:22;;;;;;;;;;;;;;;;;;2090210;28;1266;-81
2021/12/04 02:25:23;;;;;;;;;;;;;;;;;;2098464;28;1366;-81
2021/12/04 02:26:25;;;;;;;;;;;;;;;;;;2098367;28;946;-82
2021/12/04 02:27:52;;;;;;;;;;;;;;;;;;2107661;28;690;-82
2021/12/04 02:28:55;;;;;;;;;;;;;;;;;;2098483;28;1227;-82
2021/12/04 02:29:56;;;;;;;;;;;;;;;;;;2090374;28;1981;-82
2021/12/04 02:30:57;;;;;;;;;;;;;;;;;;2090387;28;1218;-81
2021/12/04 02:32:00;;;;;;;;;;;;;;;;;;2098393;28;1366;-82
2021/12/04 02:33:00;;;;;;;;;;;;;;;;;;2090219;28;1330;-82
2021/12/04 02:34:02;;;;;;;;;;;;;;;;;;2098900;28;1231;-82
2021/12/04 02:35:04;;;;;;;;;;;;;;;;;;2091674;28;1390;-82
2021/12/04 02:36:08;;;;;;;;;;;;;;;;;;2099735;28;1294;-83
2021/12/04 02:37:08;;;;;;;;;;;;;;;;;;2091184;28;1375;-81
2021/12/04 02:38:11;;;;;;;;;;;;;;;;;;2099615;28;1384;-81
2021/12/04 02:39:20;;;;;;;;;;;;;;;;;;2099782;28;1418;-81
2021/12/04 02:40:24;;;;;;;;;;;;;;;;;;2091518;28;1240;-81
2021/12/04 02:41:24;;;;;;;;;;;;;;;;;;2083744;28;1205;-82
2021/12/04 02:42:28;;;;;;;;;;;;;;;;;;2091478;28;1081;-82
2021/12/04 02:44:53;;;;;;;;;;;;;;;;;;2099620;28;1335;-82
2021/12/04 02:45:54;;;;;;;;;;;;;;;;;;2075471;28;1189;-83
2021/12/04 02:46:55;;;;;;;;;;;;;;;;;;2075098;28;2059;-83
2021/12/04 02:47:57;;;;;;;;;;;;;;;;;;2091598;28;1346;-83
2021/12/04 02:49:00;;;;;;;;;;;;;;;;;;2091553;28;1355;-82
2021/12/04 02:50:05;;;;;;;;;;;;;;;;;;2099947;28;2038;-83
2021/12/04 02:51:09;;;;;;;;;;;;;;;;;;2092276;28;1239;-82
2021/12/04 02:52:13;;;;;;;;;;;;;;;;;;2075690;28;1356;-83
2021/12/04 02:53:15;;;;;;;;;;;;;;;;;;2075287;28;1385;-83
2021/12/04 02:54:17;;;;;;;;;;;;;;;;;;2083002;28;1313;-82
2021/12/04 02:55:19;;;;;;;;;;;;;;;;;;2091783;28;1219;-82
2021/12/04 02:56:21;;;;;;;;;;;;;;;;;;2092792;28;1263;-82
2021/12/04 02:57:26;;;;;;;;;;;;;;;;;;2091751;28;1316;-83
2021/12/04 02:58:28;;;;;;;;;;;;;;;;;;2091712;28;1454;-82
2021/12/04 02:59:32;;;;;;;;;;;;;;;;;;2091710;28;1291;-84
2021/12/04 03:00:34;;;;;;;;;;;;;;;;;;2091536;28;1369;-82
2021/12/04 03:01:36;;;;;;;;;;;;;;;;;;2099976;28;1002;-83
2021/12/04 03:02:38;;;;;;;;;;;;;;;;;;2099705;28;1484;-83
2021/12/04 03:03:39;;;;;;;;;;;;;;;;;;2091858;28;1250;-83
2021/12/04 03:04:41;;;;;;;;;;;;;;;;;;2091527;28;1321;-82
2021/12/04 03:05:45;;;;;;;;;;;;;;;;;;2099647;28;1263;-81
2021/12/04 03:06:48;;;;;;;;;;;;;;;;;;2098454;28;2040;-83
2021/12/04 03:07:49;;;;;;;;;;;;;;;;;;2091382;28;1356;-83
2021/12/04 03:08:51;;;;;;;;;;;;;;;;;;2091600;28;785;-82
2021/12/04 03:09:53;;;;;;;;;;;;;;;;;;2083341;28;1977;-82
2021/12/04 03:10:55;;;;;;;;;;;;;;;;;;2067050;28;1321;-82
2021/12/04 03:11:55;;;;;;;;;;;;;;;;;;2083426;28;970;-83
2021/12/04 03:12:57;;;;;;;;;;;;;;;;;;2091505;28;1338;-82
2021/12/04 03:13:58;;;;;;;;;;;;;;;;;;2091566;28;927;-82
2021/12/04 03:15:00;;;;;;;;;;;;;;;;;;2091473;28;1252;-82
2021/12/04 03:16:01;;;;;;;;;;;;;;;;;;2075018;28;1224;-82
2021/12/04 03:17:06;;;;;;;;;;;;;;;;;;2082281;28;1256;-82
2021/12/04 03:18:07;;;;;;;;;;;;;;;;;;2091261;28;1404;-83
2021/12/04 03:19:09;;;;;;;;;;;;;;;;;;2099494;28;1084;-82
2021/12/04 03:20:10;;;;;;;;;;;;;;;;;;2091368;28;1261;-83
2021/12/04 03:21:12;;;;;;;;;;;;;;;;;;2091041;28;1993;-83
2021/12/04 03:22:15;;;;;;;;;;;;;;;;;;2090966;28;1334;-82
2021/12/04 03:23:24;;;;;;;;;;;;;;;;;;2091303;28;1318;-82
2021/12/04 03:24:25;;;;;;;;;;;;;;;;;;2092587;28;1382;-83
2021/12/04 03:25:28;;;;;;;;;;;;;;;;;;2099604;28;1136;-82
2021/12/04 03:26:29;;;;;;;;;;;;;;;;;;2093445;28;1382;-83
2021/12/04 03:27:34;;;;;;;;;;;;;;;;;;2099798;28;1242;-83
2021/12/04 03:28:35;;;;;;;;;;;;;;;;;;2098992;28;1213;-83
2021/12/04 03:29:41;;;;;;;;;;;;;;;;;;2091643;28;783;-82
2021/12/04 03:30:48;;;;;;;;;;;;;;;;;;2083701;28;1524;-83
2021/12/04 03:40:07;;;;;;;;;;;;;;;;;;2100542;28;764;-80
2021/12/04 03:41:10;;;;;;;;;;;;;;;;;;2090747;28;1317;-82
2021/12/04 03:42:12;;;;;;;;;;;;;;;;;;2083342;28;1232;-82
2021/12/04 03:43:13;;;;;;;;;;;;;;;;;;2083257;28;1269;-81
2021/12/04 03:44:18;;;;;;;;;;;;;;;;;;2082920;28;1208;-81
2021/12/04 03:45:22;;;;;;;;;;;;;;;;;;2083704;28;1208;-81
2021/12/04 03:46:25;;;;;;;;;;;;;;;;;;2090442;28;2012;-81
2021/12/04 03:47:30;;;;;;;;;;;;;;;;;;2091357;28;1219;-81
2021/12/04 03:49:57;;;;;;;;;;;;;;;;;;2080222;28;1959;-81
2021/12/04 03:50:58;;;;;;;;;;;;;;;;;;2091424;28;897;-81
2021/12/04 03:52:00;;;;;;;;;;;;;;;;;;2091893;28;1957;-82
2021/12/04 03:53:04;;;;;;;;;;;;;;;;;;2091255;28;1421;-83
2021/12/04 03:54:07;;;;;;;;;;;;;;;;;;2091563;28;870;-83
2021/12/04 03:55:09;;;;;;;;;;;;;;;;;;2090646;28;1216;-83
2021/12/04 03:56:12;;;;;;;;;;;;;;;;;;2082033;28;1353;-83
2021/12/04 03:57:14;;;;;;;;;;;;;;;;;;2091268;28;1195;-82
2021/12/04 03:58:15;;;;;;;;;;;;;;;;;;2091080;28;1317;-82
2021/12/04 03:59:18;;;;;;;;;;;;;;;;;;2074838;28;1304;-82
2021/12/04 04:00:20;;;;;;;;;;;;;;;;;;2075076;28;1382;-82
2021/12/04 04:01:24;;;;;;;;;;;;;;;;;;2085014;28;1863;-82
2021/12/04 04:02:25;;;;;;;;;;;;;;;;;;2091136;28;1274;-82
2021/12/04 04:03:27;;;;;;;;;;;;;;;;;;2090977;28;1314;-82
2021/12/04 04:04:28;;;;;;;;;;;;;;;;;;2091282;28;1263;-82
2021/12/04 04:05:30;;;;;;;;;;;;;;;;;;2090467;28;1445;-82
2021/12/04 04:06:31;;;;;;;;;;;;;;;;;;2096063;28;2087;-82
2021/12/04 04:07:33;;;;;;;;;;;;;;;;;;2082763;28;1335;-82
2021/12/04 04:08:38;;;;;;;;;;;;;;;;;;2090977;28;954;-83
2021/12/04 04:09:40;;;;;;;;;;;;;;;;;;2091130;28;1264;-82
2021/12/04 04:10:43;;;;;;;;;;;;;;;;;;2082736;28;1975;-82
2021/12/04 04:11:44;;;;;;;;;;;;;;;;;;2095193;28;1507;-82
2021/12/04 04:12:46;;;;;;;;;;;;;;;;;;2098291;28;1207;-82
2021/12/04 04:13:48;;;;;;;;;;;;;;;;;;2091083;28;923;-82
2021/12/04 04:14:49;;;;;;;;;;;;;;;;;;2082003;28;1268;-82
2021/12/04 04:15:51;;;;;;;;;;;;;;;;;;2082616;28;1455;-82
2021/12/04 04:16:54;;;;;;;;;;;;;;;;;;2082436;28;1486;-82
2021/12/04 04:17:55;;;;;;;;;;;;;;;;;;2083211;28;1261;-82
2021/12/04 04:18:57;;;;;;;;;;;;;;;;;;2091149;28;1282;-81
2021/12/04 04:19:57;;;;;;;;;;;;;;;;;;2098446;28;1494;-82
2021/12/04 04:21:00;;;;;;;;;;;;;;;;;;2091104;28;1246;-82
2021/12/04 04:22:01;;;;;;;;;;;;;;;;;;2089788;28;1997;-83
2021/12/04 04:23:02;;;;;;;;;;;;;;;;;;2098819;28;1232;-82
2021/12/04 04:24:04;;;;;;;;;;;;;;;;;;2099530;28;831;-82
2021/12/04 04:25:08;;;;;;;;;;;;;;;;;;2082594;28;1530;-83
2021/12/04 04:26:09;;;;;;;;;;;;;;;;;;2074984;28;2078;-83
2021/12/04 04:27:11;;;;;;;;;;;;;;;;;;2090909;28;1084;-82
2021/12/04 04:28:11;;;;;;;;;;;;;;;;;;2090611;28;1343;-82
2021/12/04 04:29:15;;;;;;;;;;;;;;;;;;2082822;28;1262;-82
2021/12/04 04:30:17;;;;;;;;;;;;;;;;;;2082864;28;1902;-82
2021/12/04 04:31:18;;;;;;;;;;;;;;;;;;2091914;28;1278;-82
2021/12/04 04:32:23;;;;;;;;;;;;;;;;;;2090884;28;1228;-81
2021/12/04 04:33:25;;;;;;;;;;;;;;;;;;2091283;28;1046;-82
2021/12/04 04:34:29;;;;;;;;;;;;;;;;;;2090600;28;1394;-82
2021/12/04 04:35:33;;;;;;;;;;;;;;;;;;2082737;28;1365;-82
2021/12/04 04:36:47;;;;;;;;;;;;;;;;;;2085729;28;1395;-82
2021/12/04 04:37:55;;;;;;;;;;;;;;;;;;2092947;28;1265;-82
2021/12/04 04:39:43;;;;;;;;;;;;;;;;;;2095028;28;742;-81
2021/12/04 04:58:14;;;;;;;;;;;;;;;;;;2090789;28;1321;-81
2021/12/04 04:59:27;;;;;;;;;;;;;;;;;;2090557;28;1297;-82
2021/12/04 06:46:59;;;;;;;;;;;;;;;;;;2007064;29;1877;-83
2021/12/04 06:48:15;;;;;;;;;;;;;;;;;;2017593;29;1493;-83
2021/12/04 06:49:48;;;;;;;;;;;;;;;;;;2020461;29;1380;-83
2021/12/04 06:51:03;;;;;;;;;;;;;;;;;;2070945;28;1906;-84
2021/12/04 06:54:14;;;;;;;;;;;;;;;;;;2099190;28;1420;-84
2021/12/04 06:56:00;;;;;;;;;;;;;;;;;;2104641;28;1371;-81
2021/12/04 07:01:31;;;;;;;;;;;;;;;;;;2097076;28;1384;-83
2021/12/04 08:22:24;;;;;;;;;;;;;;;;;;2006675;29;1369;-83
2021/12/04 08:44:09;;;;;;;;;;;;;;;;;;2010991;29;990;-81
2021/12/04 09:10:43;;;;;;;;;;;;;;;;;;1965772;30;1030;-85
2021/12/04 09:12:18;;;;;;;;;;;;;;;;;;1970585;30;1665;-84
2021/12/04 12:05:02;;;;;;;;;;;;;;;;;;2056421;28;1340;-85
2021/12/04 12:06:12;;;;;;;;;;;;;;;;;;2061948;28;1053;-83
2021/12/04 12:07:15;;;;;;;;;;;;;;;;;;2057633;28;1265;-84
2021/12/04 12:08:28;;;;;;;;;;;;;;;;;;2049782;28;1393;-84
2021/12/04 12:09:31;;;;;;;;;;;;;;;;;;2052082;28;1589;-84
2021/12/04 13:45:29;;;;;;;;;;;;;;;;;;2072720;28;1720;-89
2021/12/04 13:46:38;;;;;;;;;;;;;;;;;;2080862;28;1597;-88
2021/12/04 13:48:19;;;;;;;;;;;;;;;;;;2091656;28;1104;-84
2021/12/04 13:51:30;;;;;;;;;;;;;;;;;;2043804;29;1907;-86
2021/12/04 13:52:32;;;;;;;;;;;;;;;;;;2046519;28;1289;-85
2021/12/04 13:53:41;;;;;;;;;;;;;;;;;;2081230;28;1673;-87
2021/12/04 13:56:36;;;;;;;;;;;;;;;;;;2077277;28;2064;-87
2021/12/04 13:57:37;;;;;;;;;;;;;;;;;;2076200;28;1262;-86
2021/12/04 13:58:46;;;;;;;;;;;;;;;;;;2091756;28;1363;-85
2021/12/04 14:59:40;;;;;;;;;;;;;;;;;;2041776;29;1396;-85
2021/12/04 15:01:29;;;;;;;;;;;;;;;;;;2029905;29;1091;-84
2021/12/04 15:13:52;;;;;;;;;;;;;;;;;;2043121;29;919;-85
2021/12/04 15:15:19;;;;;;;;;;;;;;;;;;2034130;29;1405;-84
2021/12/04 15:27:35;;;;;;;;;;;;;;;;;;2042450;29;932;-85
2021/12/04 15:29:03;;;;;;;;;;;;;;;;;;2028890;29;981;-85
2021/12/04 15:30:25;;;;;;;;;;;;;;;;;;2028880;29;1376;-84
2021/12/04 16:59:03;;;;;;;;;;;;;;;;;;2025284;29;1022;-83
2021/12/04 17:01:53;;;;;;;;;;;;;;;;;;2016399;29;1880;-82
2021/12/04 17:06:11;;;;;;;;;;;;;;;;;;2020282;29;1353;-85
2021/12/04 17:07:12;;;;;;;;;;;;;;;;;;2073014;28;1218;-85
2021/12/04 17:08:23;;;;;;;;;;;;;;;;;;2102914;28;1239;-84
2021/12/04 17:09:45;;;;;;;;;;;;;;;;;;2105153;28;1054;-84
2021/12/04 17:12:59;;;;;;;;;;;;;;;;;;2097656;28;867;-85
2021/12/04 17:14:36;;;;;;;;;;;;;;;;;;2089365;28;1405;-82
2021/12/04 17:17:58;;;;;;;;;;;;;;;;;;2098935;28;914;-84
2021/12/04 17:19:16;;;;;;;;;;;;;;;;;;2098250;28;940;-83
2021/12/04 17:22:00;;;;;;;;;;;;;;;;;;2075655;28;1860;-84
2021/12/04 17:23:37;;;;;;;;;;;;;;;;;;2097186;28;1750;-83
2021/12/04 17:39:16;;;;;;;;;;;;;;;;;;2048974;29;714;-85
2021/12/04 17:46:30;;;;;;;;;;;;;;;;;;2027907;29;1988;-85
2021/12/04 17:47:32;;;;;;;;;;;;;;;;;;2040697;29;1345;-86
2021/12/04 17:48:41;;;;;;;;;;;;;;;;;;2033216;29;1386;-89
2021/12/04 17:49:48;;;;;;;;;;;;;;;;;;2039855;28;1038;-86
2021/12/04 17:50:50;;;;;;;;;;;;;;;;;;2082667;28;1621;-85
2021/12/04 17:52:46;;;;;;;;;;;;;;;;;;;;;
2021/12/04 18:20:25;;;;;;;;;;;;;;;;;;2099368;28;912;-84
2021/12/04 18:24:05;;;;;;;;;;;;;;;;;;2073211;28;1184;-85
2021/12/04 18:25:43;;;;;;;;;;;;;;;;;;2073467;28;1255;-84
2021/12/04 18:26:44;;;;;;;;;;;;;;;;;;2070672;28;1730;-83
2021/12/04 18:27:52;;;;;;;;;;;;;;;;;;2106934;28;1325;-83
2021/12/04 18:29:21;;;;;;;;;;;;;;;;;;2105294;28;1267;-83
2021/12/04 18:38:57;;;;;;;;;;;;;;;;;;2099921;28;1149;-86
2021/12/04 18:41:51;;;;;;;;;;;;;;;;;;2070440;28;1813;-84
2021/12/04 18:43:23;;;;;;;;;;;;;;;;;;2064482;28;1336;-85
2021/12/04 18:44:57;;;;;;;;;;;;;;;;;;2073566;28;1350;-83
2021/12/04 18:50:39;;;;;;;;;;;;;;;;;;2061390;28;1425;-83
2021/12/04 18:52:12;;;;;;;;;;;;;;;;;;2057131;28;1725;-84
2021/12/04 18:53:19;;;;;;;;;;;;;;;;;;2058037;28;1306;-83
2021/12/04 18:54:21;;;;;;;;;;;;;;;;;;2081943;28;1409;-83
2021/12/04 18:55:37;;;;;;;;;;;;;;;;;;2098764;28;1299;-84
2021/12/04 18:56:50;;;;;;;;;;;;;;;;;;2097445;28;1791;-83
2021/12/04 18:59:38;;;;;;;;;;;;;;;;;;2098417;28;1323;-83
2021/12/04 19:00:43;;;;;;;;;;;;;;;;;;2107161;28;1337;-82
2021/12/04 19:01:51;;;;;;;;;;;;;;;;;;2095741;28;1680;-84
2021/12/04 19:03:01;;;;;;;;;;;;;;;;;;2090647;28;1465;-84
2021/12/04 19:13:50;;;;;;;;;;;;;;;;;;2001491;29;1441;-84
2021/12/04 19:18:36;;;;;;;;;;;;;;;;;;1964197;30;1280;-84
2021/12/04 19:21:44;;;;;;;;;;;;;;;;;;1966171;30;948;-84
2021/12/04 19:22:45;;;;;;;;;;;;;;;;;;1966018;30;1206;-82
2021/12/04 19:23:58;;;;;;;;;;;;;;;;;;1993215;29;970;-83
2021/12/04 19:24:59;;;;;;;;;;;;;;;;;;2002650;29;1335;-81
2021/12/04 19:26:01;;;;;;;;;;;;;;;;;;2010519;29;810;-82
2021/12/04 19:27:04;;;;;;;;;;;;;;;;;;2041980;28;1872;-82
2021/12/04 19:28:07;;;;;;;;;;;;;;;;;;2057761;28;753;-82
2021/12/04 19:29:15;;;;;;;;;;;;;;;;;;2069335;28;1011;-81
2021/12/04 19:30:19;;;;;;;;;;;;;;;;;;2078315;28;1117;-82
2021/12/04 19:31:36;;;;;;;;;;;;;;;;;;2082113;28;1303;-84
2021/12/04 20:22:33;;;;;;;;;;;;;;;;;;2088173;28;1042;-84
2021/12/04 21:57:17;;;;;;;;;;;;;;;;;;2056213;28;1915;-84
2021/12/04 23:34:35;;;;;;;;;;;;;;;;;;2014406;29;1201;-82
2021/12/04 23:35:49;;;;;;;;;;;;;;;;;;2013326;29;1339;-82
